Safmarine Mulanje — VROX6 — position and weather

sailwx.info

Track history (hours):
 
Tides and Currents Weather Stations Pressure Air Temp Water Temp Dewpoint Dewpoint Depression Visibility Wind Speed Wind Dir Waves Ship Positions

Safmarine Mulanje

Last reported at 2018-Feb-17 23:16 UTC. Time now 2018-Feb-21 07:11 UTC.
Position N 41°22' E 140°17'.

Length 292 m; draft 11.9 m.

Type: Ship (hazmat cat A). MMSI: 477849300.

Date/timePositionNaut miles runAvg speedWind from/ knotsBaromVisibWave heightAir tempDewpointWater temp
2018-Feb-17 23:16N 41°22' E 140°17'414.5
2018-Feb-17 22:59N 41°25' E 140°22'714.0
2018-Feb-17 22:30N 41°28' E 140°29'815.2
2018-Feb-17 22:00N 41°33' E 140°38'816.5
2018-Feb-17 21:30N 41°37' E 140°47'714.8
2018-Feb-17 21:01N 41°39' E 140°56'815.5
2018-Feb-17 20:30N 41°39' E 141°07'917.6
2018-Feb-17 20:00N 41°40' E 141°18'816.2
2018-Feb-17 19:31N 41°42' E 141°29'713.6
2018-Feb-17 18:59N 41°43' E 141°38'  
Track history (hours):
 
Tides and Currents Weather Stations Pressure Air Temp Water Temp Dewpoint Dewpoint Depression Visibility Wind Speed Wind Dir Waves Ship Positions

Safmarine Mulanje

Last reported at 2018-Feb-17 23:16 UTC. Time now 2018-Feb-21 07:11 UTC.
Position N 41°22' E 140°17'.

Length 292 m; draft 11.9 m.

Type: Ship (hazmat cat A). MMSI: 477849300.

Date/timePositionNaut miles runAvg speedWind from/ knotsBaromVisibWave heightAir tempDewpointWater temp
2018-Feb-17 23:16N 41°22' E 140°17'414.5
2018-Feb-17 22:59N 41°25' E 140°22'714.0
2018-Feb-17 22:30N 41°28' E 140°29'815.2
2018-Feb-17 22:00N 41°33' E 140°38'816.5
2018-Feb-17 21:30N 41°37' E 140°47'714.8
2018-Feb-17 21:01N 41°39' E 140°56'815.5
2018-Feb-17 20:30N 41°39' E 141°07'917.6
2018-Feb-17 20:00N 41°40' E 141°18'816.2
2018-Feb-17 19:31N 41°42' E 141°29'713.6
2018-Feb-17 18:59N 41°43' E 141°38'  

Dump ship's entire track history